sensor_id;sensor_type;location;lat;lon;timestamp;pressure;altitude;pressure_sealevel;temperature;humidity
20115;BME280;10218;42.874;25.320;2023-05-19T00:01:24;97336.50;;;14.14;100.00
20115;BME280;10218;42.874;25.320;2023-05-19T00:03:56;97337.47;;;14.06;100.00
20115;BME280;10218;42.874;25.320;2023-05-19T00:06:29;97337.75;;;13.82;100.00
20115;BME280;10218;42.874;25.320;2023-05-19T00:09:03;97344.19;;;14.02;100.00
20115;BME280;10218;42.874;25.320;2023-05-19T00:11:30;97318.81;;;13.69;100.00
20115;BME280;10218;42.874;25.320;2023-05-19T00:13:59;97339.44;;;13.83;100.00
20115;BME280;10218;42.874;25.320;2023-05-19T00:16:27;97339.41;;;13.98;100.00
20115;BME280;10218;42.874;25.320;2023-05-19T00:18:59;97324.06;;;14.13;100.00
20115;BME280;10218;42.874;25.320;2023-05-19T00:21:28;97336.50;;;14.14;100.00
20115;BME280;10218;42.874;25.320;2023-05-19T00:23:55;97324.72;;;14.15;100.00
20115;BME280;10218;42.874;25.320;2023-05-19T00:26:23;97327.72;;;14.05;100.00
20115;BME280;10218;42.874;25.320;2023-05-19T00:28:52;97321.59;;;14.11;100.00
20115;BME280;10218;42.874;25.320;2023-05-19T00:31:19;97343.63;;;13.86;100.00
20115;BME280;10218;42.874;25.320;2023-05-19T00:33:46;97317.03;;;13.91;100.00
20115;BME280;10218;42.874;25.320;2023-05-19T00:36:14;97331.91;;;13.93;100.00
20115;BME280;10218;42.874;25.320;2023-05-19T00:38:41;97322.56;;;13.89;100.00
20115;BME280;10218;42.874;25.320;2023-05-19T00:41:08;97328.03;;;13.96;100.00
20115;BME280;10218;42.874;25.320;2023-05-19T00:43:35;97326.41;;;13.80;100.00
20115;BME280;10218;42.874;25.320;2023-05-19T00:46:02;97335.16;;;13.89;100.00
20115;BME280;10218;42.874;25.320;2023-05-19T00:48:30;97336.09;;;13.96;100.00
20115;BME280;10218;42.874;25.320;2023-05-19T00:50:58;97327.28;;;13.87;100.00
20115;BME280;10218;42.874;25.320;2023-05-19T00:53:32;97330.41;;;13.69;100.00
20115;BME280;10218;42.874;25.320;2023-05-19T00:56:01;97337.69;;;13.90;100.00
20115;BME280;10218;42.874;25.320;2023-05-19T00:58:29;97322.56;;;13.89;100.00
20115;BME280;10218;42.874;25.320;2023-05-19T01:00:59;97325.91;;;13.91;100.00
20115;BME280;10218;42.874;25.320;2023-05-19T01:03:31;97322.97;;;13.71;100.00
20115;BME280;10218;42.874;25.320;2023-05-19T01:05:58;97326.44;;;13.65;100.00
20115;BME280;10218;42.874;25.320;2023-05-19T01:08:37;97324.25;;;13.90;100.00
20115;BME280;10218;42.874;25.320;2023-05-19T01:11:05;97314.09;;;14.07;100.00
20115;BME280;10218;42.874;25.320;2023-05-19T01:13:36;97314.06;;;14.22;100.00
20115;BME280;10218;42.874;25.320;2023-05-19T01:16:21;97313.53;;;14.11;100.00
20115;BME280;10218;42.874;25.320;2023-05-19T01:19:13;97307.44;;;14.03;100.00
20115;BME280;10218;42.874;25.320;2023-05-19T01:24:44;97323.09;;;13.99;100.00
20115;BME280;10218;42.874;25.320;2023-05-19T01:33:28;97317.63;;;13.57;100.00
20115;BME280;10218;42.874;25.320;2023-05-19T01:35:56;97321.03;;;13.80;100.00
20115;BME280;10218;42.874;25.320;2023-05-19T01:38:24;97323.50;;;13.96;100.00
20115;BME280;10218;42.874;25.320;2023-05-19T01:40:52;97302.06;;;13.67;100.00
20115;BME280;10218;42.874;25.320;2023-05-19T01:43:23;97311.13;;;14.02;100.00
20115;BME280;10218;42.874;25.320;2023-05-19T01:45:51;97317.59;;;14.07;100.00
20115;BME280;10218;42.874;25.320;2023-05-19T01:48:20;97312.44;;;13.70;100.00
20115;BME280;10218;42.874;25.320;2023-05-19T01:50:47;97319.72;;;13.91;100.00
20115;BME280;10218;42.874;25.320;2023-05-19T01:53:15;97316.53;;;13.66;100.00
20115;BME280;10218;42.874;25.320;2023-05-19T01:55:45;97327.72;;;13.69;100.00
20115;BME280;10218;42.874;25.320;2023-05-19T02:06:25;97329.75;;;13.67;100.00
20115;BME280;10218;42.874;25.320;2023-05-19T02:11:39;97332.84;;;13.20;100.00
20115;BME280;10218;42.874;25.320;2023-05-19T02:14:21;97332.63;;;13.51;100.00
20115;BME280;10218;42.874;25.320;2023-05-19T02:16:51;97337.91;;;13.59;100.00
20115;BME280;10218;42.874;25.320;2023-05-19T02:19:32;97331.25;;;13.55;100.00
20115;BME280;10218;42.874;25.320;2023-05-19T02:21:59;97326.44;;;13.65;100.00
20115;BME280;10218;42.874;25.320;2023-05-19T02:24:26;97341.63;;;13.44;100.00
20115;BME280;10218;42.874;25.320;2023-05-19T02:26:53;97343.81;;;13.69;100.00
20115;BME280;10218;42.874;25.320;2023-05-19T02:29:21;97339.47;;;13.54;100.00
20115;BME280;10218;42.874;25.320;2023-05-19T02:31:49;97341.50;;;13.81;100.00
20115;BME280;10218;42.874;25.320;2023-05-19T02:34:17;97358.16;;;13.62;100.00
20115;BME280;10218;42.874;25.320;2023-05-19T02:36:45;97362.69;;;13.61;100.00
20115;BME280;10218;42.874;25.320;2023-05-19T02:39:15;97363.34;;;13.63;100.00
20115;BME280;10218;42.874;25.320;2023-05-19T02:41:42;97355.94;;;13.80;100.00
20115;BME280;10218;42.874;25.320;2023-05-19T02:44:09;97374.00;;;13.57;100.00
20115;BME280;10218;42.874;25.320;2023-05-19T02:46:37;97375.09;;;13.62;100.00
20115;BME280;10218;42.874;25.320;2023-05-19T02:49:04;97371.56;;;13.77;100.00
20115;BME280;10218;42.874;25.320;2023-05-19T02:51:31;97379.44;;;13.78;100.00
20115;BME280;10218;42.874;25.320;2023-05-19T02:53:58;97369.47;;;14.08;100.00
20115;BME280;10218;42.874;25.320;2023-05-19T02:56:25;97383.72;;;13.73;100.00
20115;BME280;10218;42.874;25.320;2023-05-19T02:58:54;97389.28;;;13.71;100.00
20115;BME280;10218;42.874;25.320;2023-05-19T03:01:21;97386.91;;;13.97;100.00
20115;BME280;10218;42.874;25.320;2023-05-19T03:03:48;97382.94;;;13.93;100.00
20115;BME280;10218;42.874;25.320;2023-05-19T03:06:16;97376.38;;;13.66;100.00
20115;BME280;10218;42.874;25.320;2023-05-19T03:08:43;97392.78;;;13.86;100.00
20115;BME280;10218;42.874;25.320;2023-05-19T03:11:11;97391.66;;;13.95;100.00
20115;BME280;10218;42.874;25.320;2023-05-19T03:13:38;97398.62;;;13.75;100.00
20115;BME280;10218;42.874;25.320;2023-05-19T03:16:05;97409.34;;;14.04;100.00
20115;BME280;10218;42.874;25.320;2023-05-19T03:18:34;97396.19;;;13.95;100.00
20115;BME280;10218;42.874;25.320;2023-05-19T03:21:01;97410.72;;;14.00;100.00
20115;BME280;10218;42.874;25.320;2023-05-19T03:23:28;97412.25;;;14.24;100.00
20115;BME280;10218;42.874;25.320;2023-05-19T03:25:55;97397.13;;;14.38;100.00
20115;BME280;10218;42.874;25.320;2023-05-19T03:28:22;97406.25;;;14.37;100.00
20115;BME280;10218;42.874;25.320;2023-05-19T03:30:50;97412.94;;;14.11;100.00
20115;BME280;10218;42.874;25.320;2023-05-19T03:33:17;97390.91;;;14.01;100.00
20115;BME280;10218;42.874;25.320;2023-05-19T03:35:45;97410.34;;;14.03;100.00
20115;BME280;10218;42.874;25.320;2023-05-19T03:38:12;97407.72;;;14.25;100.00
20115;BME280;10218;42.874;25.320;2023-05-19T03:40:41;97415.78;;;14.25;100.00
20115;BME280;10218;42.874;25.320;2023-05-19T03:43:08;97421.03;;;14.33;100.00
20115;BME280;10218;42.874;25.320;2023-05-19T03:45:36;97410.47;;;14.46;100.00
20115;BME280;10218;42.874;25.320;2023-05-19T03:48:09;97423.34;;;14.50;100.00
20115;BME280;10218;42.874;25.320;2023-05-19T03:50:38;97420.84;;;14.49;100.00
20115;BME280;10218;42.874;25.320;2023-05-19T03:53:05;97410.34;;;14.54;100.00
20115;BME280;10218;42.874;25.320;2023-05-19T03:55:37;97418.53;;;14.46;100.00
20115;BME280;10218;42.874;25.320;2023-05-19T03:58:04;97415.78;;;14.61;100.00
20115;BME280;10218;42.874;25.320;2023-05-19T04:00:32;97414.03;;;14.68;100.00
20115;BME280;10218;42.874;25.320;2023-05-19T04:02:59;97413.50;;;14.58;100.00
20115;BME280;10218;42.874;25.320;2023-05-19T04:05:26;97424.53;;;14.48;100.00
20115;BME280;10218;42.874;25.320;2023-05-19T04:07:53;97422.84;;;14.62;100.00
20115;BME280;10218;42.874;25.320;2023-05-19T04:10:22;97419.75;;;14.65;100.00
20115;BME280;10218;42.874;25.320;2023-05-19T04:12:49;97416.22;;;14.28;100.00
20115;BME280;10218;42.874;25.320;2023-05-19T04:15:16;97429.09;;;14.47;100.00
20115;BME280;10218;42.874;25.320;2023-05-19T04:17:43;97423.94;;;14.67;100.00
20115;BME280;10218;42.874;25.320;2023-05-19T04:20:11;97415.22;;;14.86;100.00
20115;BME280;10218;42.874;25.320;2023-05-19T04:22:38;97421.50;;;14.72;100.00
20115;BME280;10218;42.874;25.320;2023-05-19T04:25:06;97426.72;;;14.59;100.00
20115;BME280;10218;42.874;25.320;2023-05-19T04:27:33;97416.00;;;14.80;100.00
20115;BME280;10218;42.874;25.320;2023-05-19T04:30:05;97419.34;;;14.82;100.00
20115;BME280;10218;42.874;25.320;2023-05-19T04:32:33;97428.84;;;15.06;100.00
20115;BME280;10218;42.874;25.320;2023-05-19T04:35:00;97416.53;;;15.18;100.00
20115;BME280;10218;42.874;25.320;2023-05-19T04:37:30;97416.84;;;15.09;100.00
20115;BME280;10218;42.874;25.320;2023-05-19T04:39:57;97414.31;;;14.79;100.00
20115;BME280;10218;42.874;25.320;2023-05-19T04:42:25;97421.81;;;14.84;100.00
20115;BME280;10218;42.874;25.320;2023-05-19T04:44:58;97426.22;;;15.13;100.00
20115;BME280;10218;42.874;25.320;2023-05-19T04:47:25;97429.41;;;15.23;100.00
20115;BME280;10218;42.874;25.320;2023-05-19T04:49:53;97430.31;;;15.09;100.00
20115;BME280;10218;42.874;25.320;2023-05-19T04:52:21;97430.50;;;15.56;100.00
20115;BME280;10218;42.874;25.320;2023-05-19T04:54:49;97428.94;;;15.68;100.00
20115;BME280;10218;42.874;25.320;2023-05-19T04:57:16;97423.59;;;16.16;100.00
20115;BME280;10218;42.874;25.320;2023-05-19T04:59:44;97430.09;;;15.87;100.00
20115;BME280;10218;42.874;25.320;2023-05-19T05:02:12;97431.84;;;16.08;100.00
20115;BME280;10218;42.874;25.320;2023-05-19T05:04:39;97432.19;;;15.92;100.00
20115;BME280;10218;42.874;25.320;2023-05-19T05:07:09;97428.00;;;15.82;100.00
20115;BME280;10218;42.874;25.320;2023-05-19T05:09:36;97437.34;;;15.87;100.00
20115;BME280;10218;42.874;25.320;2023-05-19T05:12:04;97434.50;;;15.95;100.00
20115;BME280;10218;42.874;25.320;2023-05-19T05:14:34;97438.03;;;16.02;100.00
20115;BME280;10218;42.874;25.320;2023-05-19T05:17:02;97420.84;;;16.03;100.00
20115;BME280;10218;42.874;25.320;2023-05-19T05:19:30;97445.38;;;16.14;100.00
20115;BME280;10218;42.874;25.320;2023-05-19T05:21:58;97444.69;;;16.06;100.00
20115;BME280;10218;42.874;25.320;2023-05-19T05:24:25;97441.47;;;15.82;100.00
20115;BME280;10218;42.874;25.320;2023-05-19T05:26:53;97438.22;;;15.94;100.00
20115;BME280;10218;42.874;25.320;2023-05-19T05:29:20;97444.22;;;16.37;100.00
20115;BME280;10218;42.874;25.320;2023-05-19T05:31:48;97435.44;;;16.82;100.00
20115;BME280;10218;42.874;25.320;2023-05-19T05:34:15;97433.00;;;17.14;100.00
20115;BME280;10218;42.874;25.320;2023-05-19T05:36:43;97426.38;;;17.09;100.00
20115;BME280;10218;42.874;25.320;2023-05-19T05:39:10;97434.69;;;17.21;100.00
20115;BME280;10218;42.874;25.320;2023-05-19T05:41:38;97436.97;;;17.44;100.00
20115;BME280;10218;42.874;25.320;2023-05-19T05:44:06;97430.09;;;17.54;100.00
20115;BME280;10218;42.874;25.320;2023-05-19T05:46:34;97430.72;;;17.24;100.00
20115;BME280;10218;42.874;25.320;2023-05-19T05:49:02;97436.53;;;17.53;100.00
20115;BME280;10218;42.874;25.320;2023-05-19T05:51:29;97430.72;;;17.43;100.00
20115;BME280;10218;42.874;25.320;2023-05-19T05:53:59;97426.94;;;17.97;100.00
20115;BME280;10218;42.874;25.320;2023-05-19T05:56:28;97435.47;;;16.89;100.00
20115;BME280;10218;42.874;25.320;2023-05-19T05:58:56;97439.84;;;16.90;100.00
20115;BME280;10218;42.874;25.320;2023-05-19T06:01:23;97446.28;;;16.95;100.00
20115;BME280;10218;42.874;25.320;2023-05-19T06:03:52;97448.59;;;17.12;100.00
20115;BME280;10218;42.874;25.320;2023-05-19T06:06:20;97456.91;;;17.30;100.00
20115;BME280;10218;42.874;25.320;2023-05-19T06:08:48;97456.03;;;17.95;100.00
20115;BME280;10218;42.874;25.320;2023-05-19T06:11:16;97454.63;;;17.60;100.00
20115;BME280;10218;42.874;25.320;2023-05-19T06:13:46;97463.13;;;17.96;100.00
20115;BME280;10218;42.874;25.320;2023-05-19T06:16:13;97455.03;;;17.30;100.00
20115;BME280;10218;42.874;25.320;2023-05-19T06:18:42;97459.41;;;17.31;100.00
20115;BME280;10218;42.874;25.320;2023-05-19T06:21:09;97459.97;;;18.12;100.00
20115;BME280;10218;42.874;25.320;2023-05-19T06:23:39;97451.84;;;18.06;100.00
20115;BME280;10218;42.874;25.320;2023-05-19T06:26:07;97461.44;;;17.88;100.00
20115;BME280;10218;42.874;25.320;2023-05-19T06:28:34;97457.78;;;18.41;100.00
20115;BME280;10218;42.874;25.320;2023-05-19T06:31:01;97452.81;;;18.31;100.00
20115;BME280;10218;42.874;25.320;2023-05-19T06:33:30;97448.44;;;18.81;100.00
20115;BME280;10218;42.874;25.320;2023-05-19T06:35:58;97458.78;;;18.53;100.00
20115;BME280;10218;42.874;25.320;2023-05-19T06:38:25;97462.59;;;18.38;100.00
20115;BME280;10218;42.874;25.320;2023-05-19T06:40:53;97464.19;;;18.53;100.00
20115;BME280;10218;42.874;25.320;2023-05-19T06:43:20;97455.44;;;17.86;100.00
20115;BME280;10218;42.874;25.320;2023-05-19T06:45:49;97462.72;;;17.33;100.00
20115;BME280;10218;42.874;25.320;2023-05-19T06:48:17;97465.56;;;18.17;100.00
20115;BME280;10218;42.874;25.320;2023-05-19T06:50:44;97460.22;;;17.84;100.00
20115;BME280;10218;42.874;25.320;2023-05-19T06:53:11;97470.53;;;18.14;100.00
20115;BME280;10218;42.874;25.320;2023-05-19T06:55:39;97465.47;;;18.44;100.00
20115;BME280;10218;42.874;25.320;2023-05-19T06:58:13;97470.22;;;18.99;100.00
20115;BME280;10218;42.874;25.320;2023-05-19T07:00:41;97471.13;;;18.80;100.00
20115;BME280;10218;42.874;25.320;2023-05-19T07:03:09;97457.50;;;18.62;100.00
20115;BME280;10218;42.874;25.320;2023-05-19T07:05:36;97473.06;;;18.73;100.00
20115;BME280;10218;42.874;25.320;2023-05-19T07:08:04;97469.78;;;19.02;100.00
20115;BME280;10218;42.874;25.320;2023-05-19T07:10:31;97471.13;;;18.80;100.00
20115;BME280;10218;42.874;25.320;2023-05-19T07:12:58;97471.25;;;18.60;100.00
20115;BME280;10218;42.874;25.320;2023-05-19T07:15:26;97461.72;;;19.52;100.00
20115;BME280;10218;42.874;25.320;2023-05-19T07:17:53;97473.69;;;19.69;100.00
20115;BME280;10218;42.874;25.320;2023-05-19T07:20:20;97462.53;;;19.77;100.00
20115;BME280;10218;42.874;25.320;2023-05-19T07:22:47;97460.44;;;19.79;100.00
20115;BME280;10218;42.874;25.320;2023-05-19T07:25:14;97455.25;;;19.53;100.00
20115;BME280;10218;42.874;25.320;2023-05-19T07:27:42;97458.09;;;19.64;100.00
20115;BME280;10218;42.874;25.320;2023-05-19T07:30:11;97461.41;;;20.10;100.00
20115;BME280;10218;42.874;25.320;2023-05-19T07:32:39;97453.22;;;19.42;100.00
20115;BME280;10218;42.874;25.320;2023-05-19T07:35:06;97461.34;;;19.17;100.00
20115;BME280;10218;42.874;25.320;2023-05-19T07:37:33;97459.34;;;19.62;100.00
20115;BME280;10218;42.874;25.320;2023-05-19T07:40:00;97454.84;;;19.25;100.00
20115;BME280;10218;42.874;25.320;2023-05-19T07:42:27;97457.97;;;19.53;100.00
20115;BME280;10218;42.874;25.320;2023-05-19T07:44:55;97459.97;;;19.64;100.00
20115;BME280;10218;42.874;25.320;2023-05-19T07:47:22;97461.16;;;20.29;100.00
20115;BME280;10218;42.874;25.320;2023-05-19T07:49:49;97454.06;;;19.92;100.00
20115;BME280;10218;42.874;25.320;2023-05-19T07:52:17;97461.66;;;20.92;100.00
20115;BME280;10218;42.874;25.320;2023-05-19T07:54:44;97467.88;;;20.63;100.00
20115;BME280;10218;42.874;25.320;2023-05-19T07:57:12;97453.06;;;19.86;100.00
20115;BME280;10218;42.874;25.320;2023-05-19T07:59:40;97465.72;;;19.74;100.00
20115;BME280;10218;42.874;25.320;2023-05-19T08:02:07;97457.88;;;19.35;100.00
20115;BME280;10218;42.874;25.320;2023-05-19T08:04:35;97467.81;;;20.33;100.00
20115;BME280;10218;42.874;25.320;2023-05-19T08:07:02;97451.44;;;21.59;100.00
20115;BME280;10218;42.874;25.320;2023-05-19T08:09:29;97466.16;;;21.17;100.00
20115;BME280;10218;42.874;25.320;2023-05-19T08:11:57;97461.66;;;20.92;100.00
20115;BME280;10218;42.874;25.320;2023-05-19T08:14:24;97463.72;;;20.24;100.00
20115;BME280;10218;42.874;25.320;2023-05-19T08:16:51;97461.75;;;20.13;100.00
20115;BME280;10218;42.874;25.320;2023-05-19T08:19:20;97462.56;;;20.86;100.00
20115;BME280;10218;42.874;25.320;2023-05-19T08:21:47;97472.19;;;20.53;100.00
20115;BME280;10218;42.874;25.320;2023-05-19T08:24:15;97461.81;;;20.79;100.00
20115;BME280;10218;42.874;25.320;2023-05-19T08:26:43;97474.50;;;21.15;100.00
20115;BME280;10218;42.874;25.320;2023-05-19T08:29:10;97477.97;;;21.34;100.00
20115;BME280;10218;42.874;25.320;2023-05-19T08:31:37;97473.31;;;20.63;100.00
20115;BME280;10218;42.874;25.320;2023-05-19T08:34:04;97486.88;;;20.81;100.00
20115;BME280;10218;42.874;25.320;2023-05-19T08:36:31;97475.34;;;21.81;100.00
20115;BME280;10218;42.874;25.320;2023-05-19T08:38:59;97473.91;;;21.43;100.00
20115;BME280;10218;42.874;25.320;2023-05-19T08:41:26;97474.81;;;22.13;100.00
20115;BME280;10218;42.874;25.320;2023-05-19T08:43:54;97471.59;;;20.99;100.00
20115;BME280;10218;42.874;25.320;2023-05-19T08:46:23;97467.50;;;21.49;100.00
20115;BME280;10218;42.874;25.320;2023-05-19T08:48:55;97467.91;;;21.76;100.00
20115;BME280;10218;42.874;25.320;2023-05-19T08:54:16;97473.28;;;21.11;100.00
20115;BME280;10218;42.874;25.320;2023-05-19T08:56:44;97472.84;;;21.14;100.00
20115;BME280;10218;42.874;25.320;2023-05-19T08:59:13;97466.22;;;21.75;100.00
20115;BME280;10218;42.874;25.320;2023-05-19T09:01:43;97467.06;;;21.52;100.00
20115;BME280;10218;42.874;25.320;2023-05-19T09:04:12;97470.78;;;22.79;99.74
20115;BME280;10218;42.874;25.320;2023-05-19T09:06:39;97470.31;;;23.27;93.57
20115;BME280;10218;42.874;25.320;2023-05-19T09:09:07;97471.91;;;22.95;89.58
20115;BME280;10218;42.874;25.320;2023-05-19T09:11:34;97473.47;;;22.39;98.69
20115;BME280;10218;42.874;25.320;2023-05-19T09:14:04;97459.53;;;21.24;100.00
20115;BME280;10218;42.874;25.320;2023-05-19T09:16:32;97464.31;;;21.64;100.00
20115;BME280;10218;42.874;25.320;2023-05-19T09:18:59;97470.75;;;22.28;95.67
20115;BME280;10218;42.874;25.320;2023-05-19T09:21:30;97469.66;;;23.20;83.34
20115;BME280;10218;42.874;25.320;2023-05-19T09:24:08;97467.94;;;23.76;82.76
20115;BME280;10218;42.874;25.320;2023-05-19T09:26:40;97456.50;;;23.79;71.92
20115;BME280;10218;42.874;25.320;2023-05-19T09:29:15;97461.00;;;21.50;100.00
20115;BME280;10218;42.874;25.320;2023-05-19T09:31:52;97421.25;;;21.26;99.13
20115;BME280;10218;42.874;25.320;2023-05-19T09:34:22;97462.34;;;21.83;95.84
20115;BME280;10218;42.874;25.320;2023-05-19T09:36:50;97457.38;;;23.06;87.19
20115;BME280;10218;42.874;25.320;2023-05-19T09:39:20;97453.59;;;23.07;82.07
20115;BME280;10218;42.874;25.320;2023-05-19T09:41:53;97439.69;;;22.92;86.80
20115;BME280;10218;42.874;25.320;2023-05-19T09:44:23;97455.69;;;23.78;74.91
20115;BME280;10218;42.874;25.320;2023-05-19T09:46:55;97448.41;;;24.01;77.19
20115;BME280;10218;42.874;25.320;2023-05-19T09:49:24;97453.13;;;24.87;71.04
20115;BME280;10218;42.874;25.320;2023-05-19T09:51:58;97452.44;;;23.03;80.24
20115;BME280;10218;42.874;25.320;2023-05-19T09:54:26;97453.44;;;24.47;73.46
20115;BME280;10218;42.874;25.320;2023-05-19T09:57:02;97447.28;;;25.27;64.90
20115;BME280;10218;42.874;25.320;2023-05-19T09:59:31;97429.81;;;25.60;71.09
20115;BME280;10218;42.874;25.320;2023-05-19T10:02:00;97444.47;;;25.49;64.26
20115;BME280;10218;42.874;25.320;2023-05-19T10:04:29;97429.44;;;25.83;63.63
20115;BME280;10218;42.874;25.320;2023-05-19T10:06:57;97434.72;;;25.04;64.85
20115;BME280;10218;42.874;25.320;2023-05-19T10:09:28;97438.75;;;24.53;65.76
20115;BME280;10218;42.874;25.320;2023-05-19T10:11:56;97428.38;;;24.34;70.94
20115;BME280;10218;42.874;25.320;2023-05-19T10:14:26;97429.34;;;24.66;69.04
20115;BME280;10218;42.874;25.320;2023-05-19T10:16:55;97423.59;;;24.62;68.77
20115;BME280;10218;42.874;25.320;2023-05-19T10:19:26;97427.78;;;23.26;70.78
20115;BME280;10218;42.874;25.320;2023-05-19T10:21:54;97424.50;;;22.96;80.95
20115;BME280;10218;42.874;25.320;2023-05-19T10:24:22;97422.03;;;24.71;69.13
20115;BME280;10218;42.874;25.320;2023-05-19T10:27:15;97426.25;;;23.02;81.12
20115;BME280;10218;42.874;25.320;2023-05-19T10:29:48;97426.91;;;24.43;70.37
20115;BME280;10218;42.874;25.320;2023-05-19T10:32:19;97419.19;;;25.10;64.70
20115;BME280;10218;42.874;25.320;2023-05-19T10:43:54;97410.06;;;24.99;67.64
20115;BME280;10218;42.874;25.320;2023-05-19T10:46:25;97407.59;;;24.11;71.05
20115;BME280;10218;42.874;25.320;2023-05-19T10:48:54;97402.69;;;25.00;67.34
20115;BME280;10218;42.874;25.320;2023-05-19T10:51:31;97407.56;;;26.88;60.95
20115;BME280;10218;42.874;25.320;2023-05-19T10:54:02;97396.69;;;27.58;49.62
20115;BME280;10218;42.874;25.320;2023-05-19T10:56:38;97400.53;;;27.37;49.07
20115;BME280;10218;42.874;25.320;2023-05-19T10:59:31;97400.00;;;27.50;47.97
20115;BME280;10218;42.874;25.320;2023-05-19T11:02:05;97393.34;;;28.17;46.33
20115;BME280;10218;42.874;25.320;2023-05-19T11:04:49;97386.53;;;27.64;47.81
20115;BME280;10218;42.874;25.320;2023-05-19T11:07:17;97379.91;;;26.27;49.10
20115;BME280;10218;42.874;25.320;2023-05-19T11:09:51;97395.34;;;26.53;51.47
20115;BME280;10218;42.874;25.320;2023-05-19T11:12:22;97381.31;;;27.42;48.15
20115;BME280;10218;42.874;25.320;2023-05-19T11:14:53;97379.97;;;26.47;49.05
20115;BME280;10218;42.874;25.320;2023-05-19T11:17:23;97382.31;;;26.86;48.63
20115;BME280;10218;42.874;25.320;2023-05-19T11:19:53;97383.59;;;25.05;52.49
20115;BME280;10218;42.874;25.320;2023-05-19T11:22:25;97392.50;;;25.86;52.66
20115;BME280;10218;42.874;25.320;2023-05-19T11:24:54;97383.41;;;25.75;53.54
20115;BME280;10218;42.874;25.320;2023-05-19T11:29:58;97382.41;;;27.16;48.61
20115;BME280;10218;42.874;25.320;2023-05-19T11:32:30;97370.34;;;27.83;47.03
20115;BME280;10218;42.874;25.320;2023-05-19T11:35:00;97373.31;;;27.00;46.60
20115;BME280;10218;42.874;25.320;2023-05-19T11:37:30;97366.19;;;26.22;52.41
20115;BME280;10218;42.874;25.320;2023-05-19T11:40:00;97364.97;;;25.29;51.25
20115;BME280;10218;42.874;25.320;2023-05-19T11:42:28;97375.22;;;26.95;50.17
20115;BME280;10218;42.874;25.320;2023-05-19T11:44:55;97370.03;;;27.89;47.19
20115;BME280;10218;42.874;25.320;2023-05-19T11:47:22;97368.59;;;29.30;42.29
20115;BME280;10218;42.874;25.320;2023-05-19T11:49:50;97366.47;;;27.38;43.20
20115;BME280;10218;42.874;25.320;2023-05-19T11:52:21;97357.53;;;28.42;41.93
20115;BME280;10218;42.874;25.320;2023-05-19T11:54:49;97352.34;;;28.36;42.51
20115;BME280;10218;42.874;25.320;2023-05-19T11:57:17;97342.50;;;28.20;42.91
20115;BME280;10218;42.874;25.320;2023-05-19T11:59:44;97343.97;;;27.87;43.53
20115;BME280;10218;42.874;25.320;2023-05-19T12:04:39;97347.53;;;25.40;48.36
20115;BME280;10218;42.874;25.320;2023-05-19T12:07:07;97347.81;;;27.86;45.54
20115;BME280;10218;42.874;25.320;2023-05-19T12:09:34;97354.94;;;29.15;42.58
20115;BME280;10218;42.874;25.320;2023-05-19T12:12:03;97352.91;;;29.26;39.99
20115;BME280;10218;42.874;25.320;2023-05-19T12:14:30;97345.38;;;27.59;42.80
20115;BME280;10218;42.874;25.320;2023-05-19T12:16:57;97337.00;;;28.25;43.82
20115;BME280;10218;42.874;25.320;2023-05-19T12:19:25;97328.22;;;28.82;39.14
20115;BME280;10218;42.874;25.320;2023-05-19T12:21:52;97329.56;;;28.25;41.37
20115;BME280;10218;42.874;25.320;2023-05-19T12:24:20;97335.41;;;28.08;42.19
20115;BME280;10218;42.874;25.320;2023-05-19T12:26:48;97329.09;;;26.61;45.82
20115;BME280;10218;42.874;25.320;2023-05-19T12:29:16;97332.25;;;26.28;44.81
20115;BME280;10218;42.874;25.320;2023-05-19T12:31:45;97328.16;;;28.92;43.15
20115;BME280;10218;42.874;25.320;2023-05-19T12:34:13;97325.87;;;27.65;42.68
20115;BME280;10218;42.874;25.320;2023-05-19T12:36:40;97334.50;;;26.36;45.04
20115;BME280;10218;42.874;25.320;2023-05-19T12:39:07;97340.72;;;26.26;43.28
20115;BME280;10218;42.874;25.320;2023-05-19T12:41:35;97330.16;;;28.22;41.98
20115;BME280;10218;42.874;25.320;2023-05-19T12:44:13;97335.69;;;26.70;45.93
20115;BME280;10218;42.874;25.320;2023-05-19T12:46:42;97330.28;;;27.06;46.69
20115;BME280;10218;42.874;25.320;2023-05-19T12:49:09;97345.72;;;28.42;44.00
20115;BME280;10218;42.874;25.320;2023-05-19T12:51:36;97338.59;;;28.36;42.83
20115;BME280;10218;42.874;25.320;2023-05-19T12:54:04;97337.34;;;26.76;45.26
20115;BME280;10218;42.874;25.320;2023-05-19T12:56:31;97334.41;;;25.37;46.45
20115;BME280;10218;42.874;25.320;2023-05-19T12:58:59;97328.47;;;26.39;47.30
20115;BME280;10218;42.874;25.320;2023-05-19T13:01:28;97322.41;;;26.32;48.25
20115;BME280;10218;42.874;25.320;2023-05-19T13:03:55;97335.06;;;25.96;48.42
20115;BME280;10218;42.874;25.320;2023-05-19T13:06:22;97321.84;;;25.41;46.47
20115;BME280;10218;42.874;25.320;2023-05-19T13:08:50;97327.97;;;24.62;49.37
20115;BME280;10218;42.874;25.320;2023-05-19T13:11:17;97332.91;;;24.17;50.41
20115;BME280;10218;42.874;25.320;2023-05-19T13:13:44;97318.56;;;24.26;49.81
20115;BME280;10218;42.874;25.320;2023-05-19T13:16:12;97320.44;;;24.04;49.54
20115;BME280;10218;42.874;25.320;2023-05-19T13:18:39;97317.09;;;24.94;52.43
20115;BME280;10218;42.874;25.320;2023-05-19T13:21:06;97315.34;;;24.83;53.75
20115;BME280;10218;42.874;25.320;2023-05-19T13:23:33;97313.06;;;24.75;54.31
20115;BME280;10218;42.874;25.320;2023-05-19T13:26:00;97321.97;;;24.39;52.32
20115;BME280;10218;42.874;25.320;2023-05-19T13:28:30;97322.50;;;24.89;51.50